createdAt,value
2023-03-29T00:01:34.900Z,78.17
2023-03-29T00:04:04.784Z,78.45
2023-03-29T00:06:33.293Z,78.01
2023-03-29T00:09:06.629Z,79.54
2023-03-29T00:14:30.495Z,78.47
2023-03-29T00:17:24.306Z,80.30
2023-03-29T00:19:57.274Z,79.53
2023-03-29T00:22:32.493Z,79.57
2023-03-29T00:25:04.671Z,80.12
2023-03-29T00:27:32.278Z,79.82
2023-03-29T00:30:00.630Z,79.36
2023-03-29T00:32:54.424Z,79.37
2023-03-29T00:35:22.291Z,79.50
2023-03-29T00:38:16.377Z,80.52
2023-03-29T00:40:49.550Z,80.22
2023-03-29T00:43:18.422Z,80.58
2023-03-29T00:45:50.419Z,80.21
2023-03-29T00:48:44.352Z,79.67
2023-03-29T00:51:14.358Z,79.59
2023-03-29T00:53:56.101Z,79.68
2023-03-29T00:59:32.878Z,79.47
2023-03-29T01:05:10.377Z,79.33
2023-03-29T01:07:48.307Z,79.44
2023-03-29T01:10:26.625Z,79.46
2023-03-29T01:13:01.454Z,79.40
2023-03-29T01:15:29.340Z,79.85
2023-03-29T01:17:58.214Z,79.22
2023-03-29T01:20:29.048Z,79.59
2023-03-29T01:23:58.517Z,79.16
2023-03-29T01:26:39.577Z,79.68
2023-03-29T01:29:09.106Z,78.92
2023-03-29T01:32:05.454Z,79.88
2023-03-29T01:34:55.318Z,79.46
2023-03-29T01:37:29.260Z,79.35
2023-03-29T01:39:56.330Z,79.77
2023-03-29T01:42:56.733Z,79.98
2023-03-29T01:45:39.233Z,79.61
2023-03-29T01:48:24.637Z,79.96
2023-03-29T01:50:55.861Z,79.14
2023-03-29T01:53:49.465Z,79.75
2023-03-29T01:56:21.622Z,79.18
2023-03-29T01:58:57.072Z,79.36
2023-03-29T02:01:38.327Z,78.74
2023-03-29T02:04:13.063Z,79.31
2023-03-29T02:07:08.898Z,78.82
2023-03-29T02:09:38.608Z,79.04
2023-03-29T02:15:02.859Z,78.98
2023-03-29T02:17:30.594Z,79.70
2023-03-29T02:20:09.641Z,79.73
2023-03-29T02:23:13.633Z,79.04
2023-03-29T02:25:42.764Z,80.01
2023-03-29T02:28:10.430Z,79.22
2023-03-29T02:30:46.405Z,79.55
2023-03-29T02:33:19.287Z,79.76
2023-03-29T02:36:05.207Z,79.15
2023-03-29T02:38:37.752Z,79.08
2023-03-29T02:41:30.974Z,79.93
2023-03-29T02:47:02.271Z,79.50
2023-03-29T02:49:30.363Z,79.47
2023-03-29T02:52:34.123Z,79.32
2023-03-29T02:55:05.404Z,79.59
2023-03-29T02:57:32.481Z,80.08
2023-03-29T03:00:01.094Z,79.87
2023-03-29T03:02:29.683Z,79.67
2023-03-29T03:05:23.803Z,79.05
2023-03-29T03:08:16.374Z,78.89
2023-03-29T03:11:08.412Z,79.20
2023-03-29T03:16:32.489Z,78.57
2023-03-29T03:19:26.314Z,78.49
2023-03-29T03:21:54.271Z,77.64
2023-03-29T03:24:22.324Z,78.52
2023-03-29T03:26:50.536Z,78.60
2023-03-29T03:29:20.362Z,78.72
2023-03-29T03:32:24.380Z,78.66
2023-03-29T03:35:20.966Z,78.35
2023-03-29T03:37:54.289Z,78.30
2023-03-29T03:40:22.553Z,78.61
2023-03-29T03:45:42.931Z,78.00
2023-03-29T03:48:19.436Z,77.32
2023-03-29T03:50:58.195Z,77.60
2023-03-29T03:53:30.372Z,76.84
2023-03-29T03:56:16.333Z,77.81
2023-03-29T03:59:07.147Z,77.63
2023-03-29T04:01:43.853Z,76.90
2023-03-29T04:07:36.276Z,77.16
2023-03-29T04:10:42.293Z,77.58
2023-03-29T04:13:18.440Z,77.58
2023-03-29T04:16:08.442Z,78.01
2023-03-29T04:18:36.404Z,77.94
2023-03-29T04:21:08.304Z,77.59
2023-03-29T04:23:40.301Z,77.60
2023-03-29T04:26:17.633Z,77.06
2023-03-29T04:31:54.597Z,77.86
2023-03-29T04:34:51.835Z,77.95
2023-03-29T04:37:22.001Z,78.08
2023-03-29T04:39:57.162Z,77.87
2023-03-29T04:42:24.303Z,78.44
2023-03-29T04:44:53.220Z,78.31
2023-03-29T04:47:31.250Z,77.89
2023-03-29T04:53:00.718Z,77.69
2023-03-29T04:55:30.563Z,78.20
2023-03-29T04:58:03.269Z,77.70
2023-03-29T05:00:45.290Z,78.29
2023-03-29T05:03:38.494Z,78.82
2023-03-29T05:09:12.244Z,77.92
2023-03-29T05:11:48.918Z,77.96
2023-03-29T05:14:16.397Z,78.23
2023-03-29T05:16:44.364Z,78.14
2023-03-29T05:19:13.089Z,77.71
2023-03-29T05:21:47.263Z,78.38
2023-03-29T05:24:23.042Z,78.38
2023-03-29T05:27:02.441Z,78.59
2023-03-29T05:29:35.145Z,78.55
2023-03-29T05:32:36.870Z,78.82
2023-03-29T05:38:08.814Z,78.89
2023-03-29T05:40:36.272Z,78.78
2023-03-29T05:43:28.825Z,78.75
2023-03-29T05:45:56.609Z,78.57
2023-03-29T05:48:25.713Z,78.97
2023-03-29T05:51:19.009Z,78.80
2023-03-29T05:53:46.601Z,79.04
2023-03-29T05:59:08.482Z,79.35
2023-03-29T06:02:00.472Z,79.77
2023-03-29T06:04:36.646Z,79.65
2023-03-29T06:10:36.506Z,79.38
2023-03-29T06:13:29.514Z,79.79
2023-03-29T06:15:56.378Z,79.76
2023-03-29T06:18:26.463Z,79.58
2023-03-29T06:20:54.254Z,79.80
2023-03-29T06:23:46.485Z,79.71
2023-03-29T06:29:08.485Z,79.52
2023-03-29T06:31:36.633Z,79.65
2023-03-29T06:34:06.621Z,80.11
2023-03-29T06:36:57.582Z,80.19
2023-03-29T06:39:26.417Z,80.59
2023-03-29T06:42:21.278Z,79.91
2023-03-29T06:45:28.833Z,79.65
2023-03-29T06:47:58.470Z,79.80
2023-03-29T06:50:26.366Z,79.35
2023-03-29T06:53:23.412Z,79.99
2023-03-29T06:56:01.121Z,79.69
2023-03-29T06:58:59.277Z,80.01
2023-03-29T07:01:34.616Z,80.40
2023-03-29T07:04:12.309Z,80.14
2023-03-29T07:07:01.621Z,80.34
2023-03-29T07:09:31.221Z,80.32
2023-03-29T07:12:24.330Z,80.11
2023-03-29T07:15:00.680Z,80.39
2023-03-29T07:17:49.291Z,80.40
2023-03-29T07:23:09.425Z,80.42
2023-03-29T07:25:37.354Z,80.25
2023-03-29T07:28:09.274Z,80.49
2023-03-29T07:30:37.219Z,80.71
2023-03-29T07:33:14.437Z,80.55
2023-03-29T07:36:14.511Z,80.40
2023-03-29T07:38:44.272Z,79.95
2023-03-29T07:41:18.376Z,80.01
2023-03-29T07:46:49.631Z,80.24
2023-03-29T07:49:20.315Z,79.96
2023-03-29T07:51:50.290Z,79.87
2023-03-29T07:54:18.960Z,79.28
2023-03-29T07:57:03.769Z,79.47
2023-03-29T07:59:45.299Z,79.17
2023-03-29T08:02:22.340Z,79.13
2023-03-29T08:04:54.174Z,79.36
2023-03-29T08:07:50.552Z,79.22
2023-03-29T08:10:40.373Z,78.71
2023-03-29T08:13:16.272Z,79.67
2023-03-29T08:16:02.323Z,79.57
2023-03-29T08:18:38.412Z,78.42
2023-03-29T08:21:07.225Z,78.61
2023-03-29T08:23:39.295Z,78.45
2023-03-29T08:26:20.619Z,78.83
2023-03-29T08:28:54.252Z,79.31
2023-03-29T08:31:24.263Z,78.59
2023-03-29T08:33:53.177Z,78.39
2023-03-29T08:36:38.416Z,77.75
2023-03-29T08:39:12.275Z,77.88
2023-03-29T08:42:03.988Z,78.69
2023-03-29T08:44:56.673Z,78.52
2023-03-29T08:47:33.651Z,77.69
2023-03-29T08:50:02.573Z,77.97
2023-03-29T08:52:48.485Z,78.21
2023-03-29T08:55:42.596Z,76.93
2023-03-29T08:58:27.163Z,76.98
2023-03-29T09:00:57.377Z,77.63
2023-03-29T09:03:29.519Z,77.03
2023-03-29T09:06:11.763Z,76.97
2023-03-29T09:08:43.618Z,76.64
2023-03-29T09:14:52.819Z,76.54
2023-03-29T09:17:35.918Z,75.91
2023-03-29T09:20:36.088Z,76.23
2023-03-29T09:23:30.292Z,75.93
2023-03-29T09:29:47.284Z,75.10
2023-03-29T09:32:36.031Z,74.96
2023-03-29T09:35:14.294Z,74.51
2023-03-29T09:37:42.545Z,74.19
2023-03-29T09:40:19.539Z,75.24
2023-03-29T09:43:09.340Z,73.83
2023-03-29T09:45:40.142Z,74.45
2023-03-29T09:48:14.780Z,73.98
2023-03-29T09:50:51.184Z,73.72
2023-03-29T09:56:32.568Z,73.56
2023-03-29T09:59:12.343Z,72.85
2023-03-29T10:01:45.178Z,72.14
2023-03-29T10:07:08.621Z,72.05
2023-03-29T10:09:36.480Z,72.80
2023-03-29T10:12:21.985Z,72.16
2023-03-29T10:14:54.045Z,72.76
2023-03-29T10:17:25.801Z,72.21
2023-03-29T10:20:04.494Z,71.88
2023-03-29T10:22:42.277Z,72.87
2023-03-29T10:25:15.205Z,72.22
2023-03-29T10:27:45.294Z,72.22
2023-03-29T10:30:21.341Z,72.03
2023-03-29T10:32:57.984Z,71.88
2023-03-29T10:35:38.155Z,72.53
2023-03-29T10:38:12.128Z,72.21
2023-03-29T10:40:47.541Z,71.96
2023-03-29T10:43:50.839Z,72.28
2023-03-29T10:46:30.366Z,71.93
2023-03-29T10:49:05.456Z,72.20
2023-03-29T10:51:34.482Z,71.72
2023-03-29T10:54:04.232Z,71.98
2023-03-29T10:56:53.326Z,72.49
2023-03-29T10:59:34.242Z,72.58
2023-03-29T11:02:14.598Z,72.45
2023-03-29T11:04:44.310Z,71.69
2023-03-29T11:07:19.696Z,71.46
2023-03-29T11:10:35.657Z,72.53
2023-03-29T11:13:11.100Z,71.53
2023-03-29T11:15:45.212Z,71.32
2023-03-29T11:18:40.128Z,71.49
2023-03-29T11:21:17.770Z,71.74
2023-03-29T11:24:15.066Z,72.78
2023-03-29T11:27:15.969Z,72.22
2023-03-29T11:30:11.330Z,72.19
2023-03-29T11:32:46.957Z,71.54
2023-03-29T11:35:43.331Z,72.96
2023-03-29T11:38:22.163Z,72.47
2023-03-29T11:40:59.411Z,72.29
2023-03-29T11:43:29.020Z,72.57
2023-03-29T11:46:08.680Z,73.13
2023-03-29T11:48:44.000Z,73.21
2023-03-29T11:51:37.182Z,73.45
2023-03-29T11:54:52.311Z,73.13
2023-03-29T11:57:33.347Z,73.54
2023-03-29T12:00:19.612Z,74.26
2023-03-29T12:02:59.800Z,74.41
2023-03-29T12:08:31.194Z,75.54
2023-03-29T12:11:08.456Z,75.46
2023-03-29T12:13:42.609Z,76.11
2023-03-29T12:16:18.207Z,75.70
2023-03-29T12:18:49.928Z,74.61
2023-03-29T12:21:23.160Z,75.33
2023-03-29T12:23:53.064Z,74.78
2023-03-29T12:26:48.658Z,74.58
2023-03-29T12:29:25.519Z,74.36
2023-03-29T12:32:08.544Z,74.04
2023-03-29T12:34:56.383Z,74.65
2023-03-29T12:37:58.260Z,74.26
2023-03-29T12:41:21.702Z,73.53
2023-03-29T12:44:14.521Z,73.46
2023-03-29T12:46:57.472Z,73.55
2023-03-29T12:49:31.721Z,73.87
2023-03-29T12:52:32.778Z,73.61
2023-03-29T12:55:04.428Z,73.64
2023-03-29T12:57:44.880Z,73.48
2023-03-29T13:00:18.058Z,73.72
2023-03-29T13:03:20.343Z,73.84
2023-03-29T13:06:00.755Z,73.34
2023-03-29T13:08:40.401Z,73.37
2023-03-29T13:11:37.480Z,73.55
2023-03-29T13:14:34.423Z,73.17
2023-03-29T13:17:17.884Z,73.27
2023-03-29T13:20:25.936Z,73.51
2023-03-29T13:23:12.127Z,73.56
2023-03-29T13:25:49.590Z,73.02
2023-03-29T13:28:31.980Z,73.53
2023-03-29T13:31:10.996Z,73.10
2023-03-29T13:33:41.945Z,73.67
2023-03-29T13:36:30.690Z,73.68
2023-03-29T13:39:08.653Z,73.54
2023-03-29T13:41:39.834Z,73.34
2023-03-29T13:44:34.645Z,73.30
2023-03-29T13:47:25.357Z,73.54
2023-03-29T13:49:54.860Z,73.90
2023-03-29T13:52:31.301Z,74.14
2023-03-29T13:55:24.525Z,74.36
2023-03-29T13:58:01.908Z,73.87
2023-03-29T14:00:46.140Z,73.62
2023-03-29T14:03:25.791Z,73.82
2023-03-29T14:05:58.894Z,73.25
2023-03-29T14:08:41.596Z,73.24
2023-03-29T14:11:35.029Z,74.15
2023-03-29T14:14:08.084Z,73.34
2023-03-29T14:16:38.617Z,72.89
2023-03-29T14:19:14.006Z,74.11
2023-03-29T14:24:39.970Z,73.59
2023-03-29T14:27:12.608Z,74.12
2023-03-29T14:29:40.301Z,74.24
2023-03-29T14:32:10.828Z,74.01
2023-03-29T14:34:39.302Z,74.67
2023-03-29T14:37:13.925Z,74.01
2023-03-29T14:39:42.605Z,74.59
2023-03-29T14:42:21.292Z,74.66
2023-03-29T14:44:50.175Z,74.41
2023-03-29T14:47:30.200Z,75.22
2023-03-29T14:50:00.936Z,74.41
2023-03-29T14:53:01.413Z,74.99
2023-03-29T14:55:28.404Z,74.96
2023-03-29T14:57:56.409Z,75.12
2023-03-29T15:00:52.293Z,75.08
2023-03-29T15:03:27.795Z,74.28
2023-03-29T15:06:03.681Z,75.57
2023-03-29T15:11:28.630Z,75.63
2023-03-29T15:14:08.747Z,76.10
2023-03-29T15:17:03.116Z,76.29
2023-03-29T15:19:31.468Z,76.08
2023-03-29T15:25:07.429Z,76.37
2023-03-29T15:27:44.035Z,76.16
2023-03-29T15:30:15.554Z,76.47
2023-03-29T15:32:42.687Z,76.21
2023-03-29T15:35:26.278Z,76.05
2023-03-29T15:37:54.292Z,76.37
2023-03-29T15:40:26.507Z,76.43
2023-03-29T15:42:54.881Z,76.37
2023-03-29T15:45:22.949Z,76.46
2023-03-29T15:47:50.255Z,76.27
2023-03-29T15:50:18.427Z,76.86
2023-03-29T15:52:46.272Z,76.23
2023-03-29T15:58:06.668Z,76.36
2023-03-29T16:00:34.885Z,76.16
2023-03-29T16:03:08.322Z,76.24
2023-03-29T16:05:36.550Z,76.54
2023-03-29T16:08:04.362Z,76.47
2023-03-29T16:10:32.808Z,76.16
2023-03-29T16:13:00.345Z,76.66
2023-03-29T16:15:28.478Z,76.44
2023-03-29T16:18:05.498Z,76.74
2023-03-29T16:20:32.343Z,76.11
2023-03-29T16:23:00.324Z,76.14
2023-03-29T16:25:33.337Z,76.66
2023-03-29T16:28:08.080Z,76.83
2023-03-29T16:30:37.566Z,76.74
2023-03-29T16:33:08.116Z,76.68
2023-03-29T16:35:42.338Z,76.87
2023-03-29T16:38:10.338Z,77.48
2023-03-29T16:40:38.442Z,76.80
2023-03-29T16:43:12.616Z,77.37
2023-03-29T16:45:45.601Z,77.46
2023-03-29T16:48:14.063Z,77.02
2023-03-29T16:50:42.364Z,77.06
2023-03-29T16:53:10.944Z,77.28
2023-03-29T16:55:39.201Z,77.24
2023-03-29T16:58:10.540Z,77.27
2023-03-29T17:00:38.413Z,77.53
2023-03-29T17:03:08.101Z,77.51
2023-03-29T17:05:41.647Z,77.77
2023-03-29T17:08:10.408Z,77.34
2023-03-29T17:10:41.894Z,77.73
2023-03-29T17:13:15.532Z,77.68
2023-03-29T17:15:42.400Z,77.94
2023-03-29T17:18:10.415Z,78.05
2023-03-29T17:20:39.158Z,77.81
2023-03-29T17:23:17.866Z,77.62
2023-03-29T17:26:12.281Z,78.00
2023-03-29T17:28:40.358Z,77.76
2023-03-29T17:31:12.460Z,77.94
2023-03-29T17:33:40.335Z,78.19
2023-03-29T17:36:08.897Z,78.15
2023-03-29T17:38:38.097Z,78.07
2023-03-29T17:41:07.893Z,78.73
2023-03-29T17:43:36.279Z,78.37
2023-03-29T17:46:04.720Z,78.20
2023-03-29T17:48:32.905Z,78.37
2023-03-29T17:51:05.498Z,78.54
2023-03-29T17:53:32.282Z,78.68
2023-03-29T17:56:31.877Z,79.14
2023-03-29T17:59:00.363Z,79.00
2023-03-29T18:01:28.452Z,79.22
2023-03-29T18:03:56.528Z,79.07
2023-03-29T18:06:24.303Z,79.09
2023-03-29T18:08:53.223Z,79.10
2023-03-29T18:11:25.620Z,79.06
2023-03-29T18:13:53.038Z,79.15
2023-03-29T18:16:21.818Z,79.23
2023-03-29T18:18:55.960Z,79.66
2023-03-29T18:21:25.991Z,79.23
2023-03-29T18:23:56.625Z,79.65
2023-03-29T18:27:15.827Z,79.59
2023-03-29T18:29:44.796Z,79.33
2023-03-29T18:32:13.985Z,79.35
2023-03-29T18:34:49.356Z,79.99
2023-03-29T18:37:17.507Z,79.84
2023-03-29T18:39:45.645Z,80.19
2023-03-29T18:42:38.368Z,80.29
2023-03-29T18:45:09.381Z,80.26
2023-03-29T18:47:36.375Z,80.61
2023-03-29T18:50:04.689Z,80.74
2023-03-29T18:52:58.519Z,80.58
2023-03-29T18:55:26.354Z,80.26
2023-03-29T18:57:54.348Z,80.35
2023-03-29T19:00:27.724Z,80.61
2023-03-29T19:02:56.409Z,80.43
2023-03-29T19:05:24.253Z,80.96
2023-03-29T19:07:56.470Z,81.47
2023-03-29T19:10:24.732Z,81.01
2023-03-29T19:12:52.278Z,81.63
2023-03-29T19:15:20.317Z,81.52
2023-03-29T19:18:08.791Z,81.98
2023-03-29T19:20:45.165Z,81.36
2023-03-29T19:23:18.757Z,81.35
2023-03-29T19:26:08.663Z,81.54
2023-03-29T19:28:39.899Z,81.42
2023-03-29T19:31:12.502Z,81.32
2023-03-29T19:33:40.801Z,81.32
2023-03-29T19:36:08.690Z,81.76
2023-03-29T19:38:36.326Z,81.59
2023-03-29T19:41:07.512Z,82.20
2023-03-29T19:44:00.442Z,82.24
2023-03-29T19:46:28.930Z,82.57
2023-03-29T19:48:56.466Z,82.43
2023-03-29T19:51:26.719Z,82.15
2023-03-29T19:54:00.559Z,82.78
2023-03-29T19:56:28.380Z,82.48
2023-03-29T19:59:21.590Z,83.20
2023-03-29T20:02:13.742Z,82.51
2023-03-29T20:04:42.310Z,82.45
2023-03-29T20:07:10.449Z,82.63
2023-03-29T20:09:45.212Z,82.69
2023-03-29T20:12:12.385Z,82.21
2023-03-29T20:14:40.489Z,82.69
2023-03-29T20:17:08.388Z,82.46
2023-03-29T20:19:41.539Z,82.02
2023-03-29T20:22:08.605Z,82.15
2023-03-29T20:24:36.667Z,82.42
2023-03-29T20:27:09.710Z,82.56
2023-03-29T20:29:38.310Z,82.53
2023-03-29T20:32:06.701Z,82.57
2023-03-29T20:34:34.623Z,82.71
2023-03-29T20:37:02.423Z,82.84
2023-03-29T20:39:31.432Z,82.72
2023-03-29T20:42:00.170Z,82.48
2023-03-29T20:44:28.460Z,83.08
2023-03-29T20:47:28.327Z,82.44
2023-03-29T20:49:56.798Z,82.78
2023-03-29T20:52:24.609Z,83.19
2023-03-29T20:54:52.484Z,83.00
2023-03-29T20:57:29.238Z,82.79
2023-03-29T21:00:25.023Z,82.78
2023-03-29T21:03:18.253Z,82.94
2023-03-29T21:05:46.282Z,82.91
2023-03-29T21:08:23.656Z,82.81
2023-03-29T21:10:52.328Z,83.34
2023-03-29T21:13:20.320Z,83.76
2023-03-29T21:15:50.174Z,83.31
2023-03-29T21:18:18.392Z,83.18
2023-03-29T21:20:46.579Z,83.27
2023-03-29T21:23:19.309Z,83.59
2023-03-29T21:28:55.300Z,83.05
2023-03-29T21:31:27.334Z,83.01
2023-03-29T21:33:56.250Z,83.33
2023-03-29T21:36:29.770Z,83.36
2023-03-29T21:38:58.257Z,83.31
2023-03-29T21:41:27.071Z,83.26
2023-03-29T21:43:56.532Z,83.56
2023-03-29T21:46:25.787Z,83.65
2023-03-29T21:48:58.302Z,83.70
2023-03-29T21:54:23.346Z,83.33
2023-03-29T21:56:50.536Z,83.07
2023-03-29T21:59:18.324Z,83.41
2023-03-29T22:01:46.492Z,83.81
2023-03-29T22:04:33.222Z,83.28
2023-03-29T22:07:08.940Z,83.39
2023-03-29T22:10:01.566Z,84.43
2023-03-29T22:12:28.305Z,83.89
2023-03-29T22:18:14.586Z,85.26
2023-03-29T22:20:42.260Z,85.41
2023-03-29T22:23:10.603Z,84.91
2023-03-29T22:26:09.231Z,85.14
2023-03-29T22:29:02.381Z,85.13
2023-03-29T22:38:04.261Z,86.31
2023-03-29T22:40:40.287Z,86.06
2023-03-29T22:43:18.358Z,85.65
2023-03-29T22:45:46.310Z,85.33
2023-03-29T22:48:19.339Z,85.65
2023-03-29T22:50:47.074Z,85.45
2023-03-29T22:53:14.707Z,85.00
2023-03-29T23:01:52.468Z,85.63
2023-03-29T23:04:24.395Z,85.22
2023-03-29T23:06:53.088Z,85.76
2023-03-29T23:09:20.295Z,86.34
2023-03-29T23:11:53.324Z,86.77
2023-03-29T23:14:20.318Z,86.40
2023-03-29T23:17:14.710Z,86.36
2023-03-29T23:19:42.464Z,86.32
2023-03-29T23:27:54.544Z,86.17
2023-03-29T23:30:22.718Z,85.56
2023-03-29T23:32:52.377Z,86.32
2023-03-29T23:35:20.582Z,87.15
2023-03-29T23:37:48.245Z,86.32
2023-03-29T23:40:16.721Z,87.08
2023-03-29T23:42:45.560Z,86.75
2023-03-29T23:45:15.635Z,86.85
2023-03-29T23:47:44.197Z,86.63
2023-03-29T23:50:41.258Z,86.80
2023-03-29T23:56:02.350Z,87.35
2023-03-29T23:58:36.829Z,86.74
